Aviation Digital Data Service (ADDS)

Output produced by METARs form (1950 UTC 14 August 2018)
found at http://www.aviationweather.gov/adds/metars/
 
KBQP 141935Z AUTO 20003KT 7SM SCT065 35/18 A3002 RMK AO2 T03460177
KBQP 141915Z AUTO 26009KT 7SM CLR 35/17 A3002 RMK AO2 T03470170
KBQP 141855Z AUTO 24007KT 220V280 7SM CLR 36/18 A3002 RMK AO2 T03560179
KBQP 141835Z AUTO 28008KT 7SM CLR 35/18 A3003 RMK AO2 T03530175
KBQP 141815Z AUTO 22008KT 200V260 7SM CLR 35/18 A3004 RMK AO2 T03460178
KBQP 141755Z AUTO 22007KT 7SM CLR 34/18 A3004 RMK AO2 T03410179 10344 20214
KBQP 141735Z AUTO 26010KT 7SM SCT046 34/18 A3005 RMK AO2 T03380184
KBQP 141715Z AUTO 22008KT 210V270 7SM SCT046 33/21 A3005 RMK AO2 T03300205
KBQP 141655Z AUTO 27006KT 7SM SCT042 33/21 A3006 RMK AO2 T03270206
KBQP 141635Z AUTO 23005KT 7SM SCT042 33/21 A3006 RMK AO2 T03260208
KBQP 141615Z AUTO 27005KT 7SM CLR 33/21 A3007 RMK AO2 T03250206
KBQP 141555Z AUTO 28006KT 7SM CLR 32/20 A3006 RMK AO2 T03170201
KBQP 141535Z AUTO 24007KT 7SM CLR 31/21 A3006 RMK AO2 T03110207
KBQP 141515Z AUTO 25005KT 7SM CLR 30/21 A3006 RMK AO2 T03010212
KBQP 141455Z AUTO 23006KT 7SM CLR 29/22 A3005 RMK AO2 T02940217
KBQP 141435Z AUTO 26006KT 7SM CLR 28/23 A3005 RMK AO2 T02800231
KBQP 141415Z AUTO 24005KT 7SM CLR 27/23 A3005 RMK AO2 T02710231
KBQP 141355Z AUTO 25007KT 7SM CLR 27/24 A3005 RMK AO2 T02690242
KBQP 141335Z AUTO 22003KT 7SM CLR 26/24 A3005 RMK AO2 T02550243
KBQP 141315Z AUTO 21003KT 7SM CLR 24/24 A3005 RMK AO2 T02440241
KBQP 141255Z AUTO 00000KT 7SM CLR 24/23 A3005 RMK AO2 T02350231
KBQP 141235Z AUTO 00000KT 7SM CLR 23/22 A3005 RMK AO2 T02260222
KBQP 141215Z AUTO 00000KT 5SM BR CLR 22/22 A3004 RMK AO2 T02180215
KBQP 141155Z AUTO 00000KT 7SM CLR 22/21 A3004 RMK AO2 T02150211 10240 20212
KBQP 141135Z AUTO 00000KT 5SM BR CLR 22/21 A3003 RMK AO2 LTG DSNT SE T02160213
KBQP 141115Z AUTO 00000KT 5SM BR CLR 21/21 A3002 RMK AO2 T02140211
KBQP 141055Z AUTO 00000KT 5SM BR CLR 22/22 A3002 RMK AO2 T02180215
KBQP 141035Z AUTO 00000KT 7SM CLR 22/22 A3002 RMK AO2 T02200217
KBQP 141015Z AUTO 00000KT 5SM BR CLR 22/22 A3002 RMK AO2 T02190215
KBQP 140955Z AUTO 00000KT 7SM CLR 22/21 A3002 RMK AO2 T02160213
KBQP 140935Z AUTO 00000KT 4SM BR CLR 22/21 A3001 RMK AO2 T02170214
KBQP 140915Z AUTO 00000KT 7SM CLR 22/22 A3001 RMK AO2 T02180215
KBQP 140855Z AUTO 00000KT 7SM CLR 22/22 A3002 RMK AO2 T02200216
KBQP 140835Z AUTO 00000KT 7SM CLR 22/22 A3001 RMK AO2 T02220219
KBQP 140815Z AUTO 00000KT 3SM BR CLR 21/21 A3001 RMK AO2 T02140211
KBQP 140755Z AUTO 00000KT 7SM CLR 22/22 A3002 RMK AO2 T02200216
KBQP 140735Z AUTO 00000KT 7SM CLR 22/22 A3002 RMK AO2 T02220219
KBQP 140715Z AUTO 00000KT 10SM CLR 23/23 A3001 RMK AO2 T02330230
KBQP 140655Z AUTO 00000KT 10SM CLR 24/24 A3002 RMK AO2 T02380235
KBQP 140635Z AUTO 09003KT 10SM CLR 24/24 A3002 RMK AO2 LTG DSNT NW T02380235
KBQP 140615Z AUTO 00000KT 10SM CLR 24/23 A3002 RMK AO2 T02350230
KBQP 140555Z AUTO 00000KT 7SM CLR 24/24 A3001 RMK AO2 T02400235 10318 20240 403520200
KBQP 140535Z AUTO 00000KT 10SM CLR 25/24 A3001 RMK AO2 T02450240
KBQP 140515Z AUTO 00000KT 10SM CLR 24/24 A3001 RMK AO2 T02430240
KBQP 140455Z AUTO 00000KT 10SM CLR 25/24 A3001 RMK AO2 T02450241
KBQP 140435Z AUTO 09003KT 10SM CLR 25/24 A3001 RMK AO2 T02460242
KBQP 140415Z AUTO 00000KT 10SM CLR 25/25 A3001 RMK AO2 T02480245
KBQP 140355Z AUTO 00000KT 10SM CLR 25/25 A3002 RMK AO2 T02500245
KBQP 140335Z AUTO 00000KT 7SM CLR 25/25 A3002 RMK AO2 T02480245
KBQP 140315Z AUTO 07003KT 10SM CLR 25/25 A3002 RMK AO2 T02520247
KBQP 140255Z AUTO 00000KT 7SM CLR 25/24 A3002 RMK AO2 T02540244
KBQP 140235Z AUTO 00000KT 7SM CLR 26/24 A3002 RMK AO2 T02560237
KBQP 140215Z AUTO 00000KT 10SM CLR 26/24 A3001 RMK AO2 T02600235
KBQP 140155Z AUTO 08003KT 10SM CLR 26/23 A3001 RMK AO2 T02630232
KBQP 140135Z AUTO 07003KT 10SM CLR 27/23 A3001 RMK AO2 T02650230
KBQP 140115Z AUTO 00000KT 10SM CLR 28/22 A3001 RMK AO2 T02780223
KBQP 140055Z AUTO 00000KT 7SM SCT060 29/22 A3002 RMK AO2 T02860217
KBQP 140035Z AUTO 08004KT 7SM BKN060 30/22 A3002 RMK AO2 T02990215
KBQP 140015Z AUTO 08003KT 7SM BKN060 31/21 A3001 RMK AO2 T03090213
KBQP 132355Z AUTO 08003KT 7SM BKN060 32/21 A3001 RMK AO2 T03190208 10352 20319
KBQP 132335Z AUTO 00000KT 7SM SCT060 32/20 A3001 RMK AO2 T03220204
KBQP 132315Z AUTO 12003KT 7SM SCT070 33/20 A3002 RMK AO2 T03310198
KBQP 132255Z AUTO 17005KT 7SM SCT060 34/19 A3001 RMK AO2 T03420189
KBQP 132235Z AUTO 00000KT 7SM SCT060 35/19 A3002 RMK AO2 T03450185
KBQP 132215Z AUTO 00000KT 7SM SCT060 33/18 A3002 RMK AO2 T03340182
KBQP 132155Z AUTO 25005KT 7SM SCT060 35/18 A3001 RMK AO2 LTG DSNT E T03500184
KBQP 132135Z AUTO 23003KT 7SM SCT065 BKN070 35/19 A3001 RMK AO2 T03460189
KBQP 132115Z AUTO 00000KT 7SM SCT055 BKN075 33/19 A3001 RMK AO2 T03280193
KBQP 132055Z AUTO 18003KT 7SM BKN060 BKN065 BKN080 33/20 A3002 RMK AO2 LTG DSNT NE T03300196
KBQP 132035Z AUTO 00000KT 7SM SCT060 SCT080 33/19 A3002 RMK AO2 T03290191
KBQP 132015Z AUTO 27004KT 7SM CLR 34/19 A3003 RMK AO2 T03410187
KBQP 131955Z AUTO 28005KT 7SM CLR 35/18 A3004 RMK AO2 T03500180
KBQP 131935Z AUTO 25004KT 7SM CLR 34/18 A3005 RMK AO2 T03360177
KBQP 131915Z AUTO 25003KT 7SM CLR 33/18 A3006 RMK AO2 LTG DSNT NE T03320179
KBQP 131855Z AUTO 20004KT 10SM CLR 33/17 A3007 RMK AO2 LTG DSNT W T03310166
KBQP 131835Z AUTO 28005KT 7SM CLR 34/18 A3008 RMK AO2 LTG DSNT NE T03350184
KBQP 131815Z AUTO 26005KT 10SM CLR 33/18 A3008 RMK AO2 T03330183
KBQP 131755Z AUTO 28006KT 7SM CLR 33/18 A3009 RMK AO2 T03310181 10331 20206
KBQP 131735Z AUTO 25006KT 10SM CLR 33/19 A3009 RMK AO2 T03260194
KBQP 131715Z AUTO 22007KT 7SM CLR 32/19 A3011 RMK AO2 T03180193
KBQP 131655Z AUTO 23006KT 10SM CLR 32/19 A3011 RMK AO2 T03160189
KBQP 131635Z AUTO 23007KT 10SM CLR 32/19 A3011 RMK AO2 T03160186
KBQP 131615Z AUTO 24005KT 10SM CLR 31/20 A3011 RMK AO2 T03090196
KBQP 131555Z AUTO 28005KT 10SM CLR 31/19 A3011 RMK AO2 T03100192
KBQP 131535Z AUTO 20003KT 10SM CLR 30/19 A3011 RMK AO2 T03010193
KBQP 131515Z AUTO 24003KT 10SM CLR 29/20 A3011 RMK AO2 T02940195
KBQP 131455Z AUTO 22004KT 10SM CLR 29/21 A3011 RMK AO2 T02850211
KBQP 131435Z AUTO 00000KT 10SM CLR 28/22 A3011 RMK AO2 T02750219
KBQP 131415Z AUTO 00000KT 10SM CLR 26/23 A3011 RMK AO2 T02630231
KBQP 131355Z AUTO 00000KT 10SM CLR 26/24 A3011 RMK AO2 T02560238
KBQP 131335Z AUTO 00000KT 10SM CLR 25/24 A3011 RMK AO2 T02480243
KBQP 131315Z AUTO 00000KT 7SM CLR 24/23 A3010 RMK AO2 T02360233
KBQP 131255Z AUTO 00000KT 10SM SCT002 23/22 A3010 RMK AO2 T02270223
KBQP 131235Z AUTO 00000KT 7SM SCT002 22/22 A3010 RMK AO2 T02200215
KBQP 131215Z AUTO 00000KT 4SM BR BKN002 21/21 A3010 RMK AO2 T02130210
KBQP 131155Z AUTO 00000KT M1/4SM FG OVC002 21/20 A3010 RMK AO2 T02050202 10217 20200
KBQP 131135Z AUTO 00000KT 4SM BR OVC002 20/20 A3010 RMK AO2 T02020200
KBQP 131115Z AUTO 00000KT 4SM BR OVC002 20/20 A3010 RMK AO2 T02030200
KBQP 131055Z AUTO 00000KT 7SM BKN002 20/20 A3009 RMK AO2 T02010198
KBQP 131035Z AUTO 00000KT 5SM BR CLR 20/20 A3009 RMK AO2 T02010198
KBQP 131015Z AUTO 00000KT 7SM SCT002 20/20 A3008 RMK AO2 T02020200
KBQP 130955Z AUTO 00000KT 3SM BR SCT004 20/20 A3009 RMK AO2 T02020200
KBQP 130935Z AUTO 00000KT 5SM BR BKN002 20/20 A3009 RMK AO2 T02010198
KBQP 130915Z AUTO 00000KT 1/2SM FG OVC002 20/20 A3008 RMK AO2 T02020200
KBQP 130855Z AUTO 00000KT 2SM BR BKN006 20/20 A3009 RMK AO2 VIS 1 1/2V3 T02010198
KBQP 130835Z AUTO 00000KT 1 1/4SM BR BKN004 20/20 A3008 RMK AO2 T02040201
KBQP 130815Z AUTO 00000KT 1 1/2SM BR SCT002 21/20 A3007 RMK AO2 VIS 3/4V5 T02060202
KBQP 130755Z AUTO 00000KT 1SM BR OVC002 21/21 A3008 RMK AO2 T02090206
KBQP 130735Z AUTO 00000KT 4SM BR BKN002 21/21 A3007 RMK AO2 T02130210
KBQP 130715Z AUTO 00000KT 7SM SCT002 22/21 A3008 RMK AO2 T02150212
KBQP 130655Z AUTO 00000KT 7SM CLR 21/21 A3008 RMK AO2 T02100207
KBQP 130635Z AUTO 00000KT 7SM CLR 21/21 A3007 RMK AO2 T02130210
KBQP 130615Z AUTO 00000KT 10SM CLR 22/21 A3007 RMK AO2 T02150212
KBQP 130555Z AUTO 00000KT 10SM CLR 22/21 A3008 RMK AO2 T02170213 10269 20217 403200217
KBQP 130535Z AUTO 00000KT 10SM CLR 22/22 A3008 RMK AO2 T02200216
KBQP 130515Z AUTO 00000KT 10SM CLR 22/22 A3008 RMK AO2 T02210218
KBQP 130455Z AUTO 00000KT 10SM CLR 23/22 A3007 RMK AO2 T02250221
KBQP 130435Z AUTO 00000KT 10SM CLR 23/22 A3008 RMK AO2 T02260222
KBQP 130415Z AUTO 17003KT 10SM CLR 23/23 A3009 RMK AO2 T02310228
KBQP 130355Z AUTO 16003KT 10SM CLR 24/23 A3010 RMK AO2 T02380234
KBQP 130335Z AUTO 00000KT 10SM CLR 24/24 A3011 RMK AO2 T02410238
KBQP 130315Z AUTO 00000KT 10SM CLR 25/24 A3011 RMK AO2 T02450240
KBQP 130255Z AUTO 23003KT 10SM CLR 24/24 A3010 RMK AO2 LTG DSNT SE T02420239
KBQP 130235Z AUTO 00000KT 10SM SCT110 24/24 A3009 RMK AO2 LTG DSNT SE T02410237
KBQP 130215Z AUTO 00000KT 10SM SCT045 SCT060 SCT120 25/24 A3010 RMK AO2 T02450241
KBQP 130155Z AUTO 00000KT 10SM VCTS SCT045 BKN060 25/24 A3010 RMK AO2 T02520240
KBQP 130135Z AUTO 28003KT 10SM BKN060 OVC070 25/24 A3009 RMK AO2 LTG DSNT S T02520238
KBQP 130115Z AUTO 29003KT 10SM VCTS SCT060 BKN070 25/24 A3009 RMK AO2 LTG DSNT S T02520235
KBQP 130055Z AUTO 32003KT 10SM SCT070 26/24 A3008 RMK AO2 LTG DSNT S AND SW T02570236
KBQP 130035Z AUTO 00000KT 10SM SCT120 26/24 A3008 RMK AO2 LTG DSNT SE AND S T02610236
KBQP 130015Z AUTO 32004KT 10SM SCT120 27/23 A3007 RMK AO2 LTG DSNT SE AND SW T02650234
KBQP 122355Z AUTO 33004KT 10SM CLR 27/24 A3007 RMK AO2 LTG DSNT S T02700237 10320 20270
KBQP 122335Z AUTO 33003KT 10SM SCT120 28/24 A3007 RMK AO2 LTG DSNT SE AND SW T02760240
KBQP 122315Z AUTO 31003KT 10SM VCTS SCT120 28/24 A3006 RMK AO2 LTG DSNT NE THRU SE T02770236
KBQP 122255Z AUTO 30005KT 10SM SCT120 28/24 A3006 RMK AO2 LTG DSNT SE AND SW T02770236
KBQP 122235Z AUTO 31003KT 10SM CLR 28/24 A3006 RMK AO2 LTG DSNT N AND SE T02760236
KBQP 122215Z AUTO 29005KT 10SM CLR 28/23 A3006 RMK AO2 LTG DSNT E THRU SW T02750230
KBQP 122155Z AUTO 28006KT 10SM -RA CLR 28/22 A3006 RMK AO2 LTG DSNT ALQS T02750217
KBQP 122135Z AUTO 28008KT 10SM CLR 28/21 A3004 RMK AO2 LTG DSNT ALQS T02840210
KBQP 122115Z AUTO 27007KT 10SM CLR 29/21 A3004 RMK AO2 LTG DSNT W THRU E T02870213
KBQP 122055Z AUTO 25007KT 10SM CLR 30/22 A3004 RMK AO2 LTG DSNT ALQS T02950220
KBQP 122035Z AUTO 24006KT 10SM TS CLR 30/22 A3005 RMK AO2 LTG DSNT ALQS T03000216
KBQP 122015Z AUTO 25004KT 10SM VCTS SCT031 31/22 A3006 RMK AO2 LTG DSNT ALQS T03060221
KBQP 121955Z AUTO 24005KT 10SM VCTS CLR 31/22 A3005 RMK AO2 LTG DSNT ALQS T03100222
KBQP 121935Z AUTO 25007KT 10SM VCTS SCT036 SCT045 32/22 A3006 RMK AO2 LTG DSNT SE THRU W T03160215
KBQP 121915Z AUTO 25006KT 10SM BKN034 BKN045 32/22 A3006 RMK AO2 LTG DSNT SE THRU W T03180220
KBQP 121855Z AUTO 00000KT 10SM SCT034 32/22 A3007 RMK AO2 LTG DSNT SW AND W T03150223
KBQP 121835Z AUTO 22004KT 10SM SCT032 32/23 A3008 RMK AO2 LTG DSNT W T03180226
KBQP 121815Z AUTO 00000KT 10SM SCT028 BKN033 BKN041 31/23 A3008 RMK AO2 LTG DSNT W T03090226
KBQP 121755Z AUTO 17004KT 10SM SCT031 SCT041 31/22 A3009 RMK AO2 LTG DSNT W T03100223 10310 20227
KBQP 121735Z AUTO 13003KT 10SM SCT023 SCT032 30/23 A3009 RMK AO2 LTG DSNT W T03030225
KBQP 121715Z AUTO 25004KT 10SM BKN023 BKN032 30/23 A3009 RMK AO2 LTG DSNT W T02950231
KBQP 121655Z AUTO 00000KT 10SM SCT023 30/23 A3010 RMK AO2 LTG DSNT W T02960232
KBQP 121635Z AUTO 00000KT 10SM SCT023 30/23 A3011 RMK AO2 T02980227
KBQP 121615Z AUTO 23006KT 10SM SCT023 30/23 A3011 RMK AO2 LTG DSNT W T02970234
KBQP 121555Z AUTO 22003KT 10SM CLR 29/23 A3011 RMK AO2 T02920232
KBQP 121535Z AUTO 00000KT 10SM CLR 29/23 A3010 RMK AO2 T02880230
KBQP 121515Z AUTO 22003KT 10SM SCT075 BKN095 29/24 A3010 RMK AO2 T02870236
KBQP 121455Z AUTO 00000KT 10SM SCT075 BKN095 28/23 A3010 RMK AO2 LTG DSNT NW T02810234
KBQP 121435Z AUTO 00000KT 10SM SCT095 28/23 A3010 RMK AO2 LTG DSNT W T02760232
KBQP 121415Z AUTO 00000KT 10SM CLR 27/23 A3010 RMK AO2 T02670230
KBQP 121355Z AUTO 00000KT 10SM CLR 26/23 A3011 RMK AO2 T02610231
KBQP 121335Z AUTO 00000KT 10SM CLR 26/23 A3011 RMK AO2 T02570234
KBQP 121315Z AUTO 21003KT 10SM CLR 25/24 A3011 RMK AO2 T02520238
KBQP 121255Z AUTO 00000KT 10SM CLR 24/24 A3010 RMK AO2 LTG DSNT N T02390235
KBQP 121235Z AUTO 00000KT 10SM CLR 23/23 A3009 RMK AO2 T02320230
KBQP 121215Z AUTO 00000KT 10SM -DZ SCT075 SCT100 23/23 A3009 RMK AO2 T02300225
KBQP 121155Z AUTO 20004KT 10SM SCT110 23/22 A3009 RMK AO2 T02270223 10235 20225
KBQP 121135Z AUTO 00000KT 10SM CLR 23/22 A3008 RMK AO2 T02260222
KBQP 121115Z AUTO 00000KT 10SM CLR 23/22 A3006 RMK AO2 T02260222
KBQP 121055Z AUTO 00000KT 10SM CLR 23/22 A3006 RMK AO2 T02260223
KBQP 121035Z AUTO 00000KT 10SM CLR 23/22 A3005 RMK AO2 T02250222
KBQP 121015Z AUTO 00000KT 10SM CLR 23/22 A3005 RMK AO2 T02260222
KBQP 120955Z AUTO 00000KT 10SM CLR 23/22 A3005 RMK AO2 T02270223
KBQP 120935Z AUTO 00000KT 10SM CLR 23/22 A3005 RMK AO2 T02270223
KBQP 120915Z AUTO 00000KT 10SM CLR 23/23 A3004 RMK AO2 T02290225
KBQP 120855Z AUTO 00000KT 10SM CLR 23/23 A3004 RMK AO2 T02280225
KBQP 120835Z AUTO 00000KT 10SM CLR 23/23 A3004 RMK AO2 T02300225
KBQP 120815Z AUTO 00000KT 10SM CLR 23/23 A3004 RMK AO2 T02300226
KBQP 120755Z AUTO 00000KT 10SM CLR 23/23 A3003 RMK AO2 T02300225
KBQP 120735Z AUTO 00000KT 10SM CLR 23/23 A3004 RMK AO2 T02280225
KBQP 120715Z AUTO 00000KT 10SM CLR 23/23 A3004 RMK AO2 T02300226
KBQP 120655Z AUTO 00000KT 10SM CLR 23/23 A3005 RMK AO2 T02300227
KBQP 120635Z AUTO 00000KT 10SM CLR 23/23 A3005 RMK AO2 T02320229
KBQP 120615Z AUTO 00000KT 10SM CLR 23/23 A3006 RMK AO2 T02330230
KBQP 120555Z AUTO 00000KT 10SM CLR 24/23 A3006 RMK AO2 T02350232 10281 20235 403490206
KBQP 120535Z AUTO 00000KT 10SM CLR 24/24 A3006 RMK AO2 T02420237
KBQP 120515Z AUTO 26003KT 10SM CLR 24/24 A3006 RMK AO2 T02440236
KBQP 120455Z AUTO 22005KT 10SM CLR 25/24 A3006 RMK AO2 T02470235
KBQP 120435Z AUTO 24003KT 10SM CLR 25/24 A3004 RMK AO2 T02480238
KBQP 120415Z AUTO 00000KT 10SM CLR 25/23 A3003 RMK AO2 T02510233
KBQP 120355Z AUTO 26003KT 10SM CLR 25/24 A3003 RMK AO2 T02530235
KBQP 120335Z AUTO 25004KT 10SM CLR 26/24 A3003 RMK AO2 T02550241
KBQP 120315Z AUTO 24004KT 10SM CLR 26/24 A3003 RMK AO2 T02550237
KBQP 120255Z AUTO 00000KT 10SM CLR 26/23 A3002 RMK AO2 T02570233
KBQP 120235Z AUTO 24003KT 10SM CLR 26/23 A3002 RMK AO2 T02580233
KBQP 120215Z AUTO 23004KT 10SM CLR 26/24 A3001 RMK AO2 T02600235
KBQP 120155Z AUTO 22005KT 10SM CLR 27/24 A3001 RMK AO2 T02650235
KBQP 120135Z AUTO 24004KT 10SM CLR 27/24 A3000 RMK AO2 T02680235
KBQP 120115Z AUTO 24004KT 10SM CLR 27/23 A3000 RMK AO2 T02730234
KBQP 120055Z AUTO 25006KT 10SM SCT055 28/23 A3000 RMK AO2 T02770233
KBQP 120035Z AUTO 00000KT 10SM CLR 27/25 A2999 RMK AO2 LTG DSNT W T02720250
KBQP 120015Z AUTO 00000KT 10SM CLR 28/25 A2998 RMK AO2 T02760245
KBQP 112355Z AUTO 00000KT 10SM CLR 28/24 A2998 RMK AO2 T02810235 10349 20280
KBQP 112335Z AUTO 00000KT 10SM CLR 29/23 A2998 RMK AO2 LTG DSNT SW T02880229
KBQP 112315Z AUTO 00000KT 10SM CLR 29/23 A2999 RMK AO2 LTG DSNT S T02920227
KBQP 112255Z AUTO 18003KT 10SM CLR 30/23 A2999 RMK AO2 LTG DSNT S T02960231
KBQP 112235Z AUTO 00000KT 10SM SCT060 30/23 A2997 RMK AO2 LTG DSNT SE AND W T03000230
KBQP 112215Z AUTO 14003KT 10SM SCT060 31/23 A2998 RMK AO2 T03080225
KBQP 112155Z AUTO 00000KT 10SM SCT050 SCT070 32/22 A2998 RMK AO2 LTG DSNT S AND SW T03200216
KBQP 112135Z AUTO 00000KT 10SM BKN050 33/21 A2998 RMK AO2 LTG DSNT SW T03270205
KBQP 112115Z AUTO 00000KT 10SM OVC050 34/20 A2998 RMK AO2 LTG DSNT SE THRU SW T03420201
KBQP 112055Z AUTO 00000KT 10SM SCT050 SCT065 SCT085 35/21 A2998 RMK AO2 LTG DSNT SW T03460207
KBQP 112035Z AUTO 22005KT 10SM SCT050 34/21 A2998 RMK AO2 LTG DSNT SW T03370207
KBQP 112015Z AUTO 27005KT 10SM SCT046 SCT050 34/21 A2999 RMK AO2 LTG DSNT S AND SW T03430205
KBQP 111955Z AUTO 32004KT 10SM SCT046 SCT050 32/21 A3000 RMK AO2 T03230210